sensor_id;sensor_type;location;lat;lon;timestamp;pressure;altitude;pressure_sealevel;temperature;humidity
64862;BME280;62652;42.274;-71.436;2023-02-20T00:00:02;101230.0;;;5.999999999999998;91.2
64862;BME280;62652;42.274;-71.436;2023-02-20T00:01:01;101230.0;;;5.999999999999998;91.1
64862;BME280;62652;42.274;-71.436;2023-02-20T00:02:01;101230.0;;;5.999999999999998;91.6
64862;BME280;62652;42.274;-71.436;2023-02-20T00:03:01;101230.0;;;5.999999999999998;91.8
64862;BME280;62652;42.274;-71.436;2023-02-20T00:04:01;101220.0;;;5.999999999999998;92.1
64862;BME280;62652;42.274;-71.436;2023-02-20T00:05:01;101210.0;;;5.999999999999998;92.5
64862;BME280;62652;42.274;-71.436;2023-02-20T00:06:01;101210.0;;;5.888888888888889;93.1
64862;BME280;62652;42.274;-71.436;2023-02-20T00:07:01;101220.0;;;5.999999999999998;92.9
64862;BME280;62652;42.274;-71.436;2023-02-20T00:08:01;101210.0;;;5.888888888888889;93.9
64862;BME280;62652;42.274;-71.436;2023-02-20T00:09:01;101200.0;;;5.888888888888889;93.9
64862;BME280;62652;42.274;-71.436;2023-02-20T00:10:01;101210.0;;;5.888888888888889;93.6
64862;BME280;62652;42.274;-71.436;2023-02-20T00:11:02;101220.0;;;5.777777777777777;94.7
64862;BME280;62652;42.274;-71.436;2023-02-20T00:12:01;101210.0;;;5.777777777777777;94.9
64862;BME280;62652;42.274;-71.436;2023-02-20T00:13:01;101220.0;;;5.777777777777777;95.6
64862;BME280;62652;42.274;-71.436;2023-02-20T00:14:01;101210.0;;;5.777777777777777;95.4
64862;BME280;62652;42.274;-71.436;2023-02-20T00:15:01;101210.0;;;5.777777777777777;95.8
64862;BME280;62652;42.274;-71.436;2023-02-20T00:16:01;101190.0;;;5.777777777777777;95.9
64862;BME280;62652;42.274;-71.436;2023-02-20T00:17:01;101180.0;;;5.888888888888889;95.7
64862;BME280;62652;42.274;-71.436;2023-02-20T00:18:01;101210.0;;;5.777777777777777;95.9
64862;BME280;62652;42.274;-71.436;2023-02-20T00:19:01;101190.0;;;5.777777777777777;96.2
64862;BME280;62652;42.274;-71.436;2023-02-20T00:20:03;101190.0;;;5.777777777777777;96.2
64862;BME280;62652;42.274;-71.436;2023-02-20T00:21:01;101190.0;;;5.777777777777777;96.3
64862;BME280;62652;42.274;-71.436;2023-02-20T00:22:01;101180.0;;;5.777777777777777;96.4
64862;BME280;62652;42.274;-71.436;2023-02-20T00:23:01;101200.0;;;5.777777777777777;96.6
64862;BME280;62652;42.274;-71.436;2023-02-20T00:24:01;101210.0;;;5.777777777777777;97.3
64862;BME280;62652;42.274;-71.436;2023-02-20T00:25:01;101200.0;;;5.7222222222222205;98.1
64862;BME280;62652;42.274;-71.436;2023-02-20T00:26:01;101190.0;;;5.7222222222222205;98.5
64862;BME280;62652;42.274;-71.436;2023-02-20T00:27:01;101170.0;;;5.7222222222222205;98.7
64862;BME280;62652;42.274;-71.436;2023-02-20T00:28:01;101150.0;;;5.7222222222222205;98.8
64862;BME280;62652;42.274;-71.436;2023-02-20T00:29:01;101160.0;;;5.7222222222222205;98.9
64862;BME280;62652;42.274;-71.436;2023-02-20T00:30:01;101150.0;;;5.7222222222222205;99.1
64862;BME280;62652;42.274;-71.436;2023-02-20T00:31:01;101140.0;;;5.7222222222222205;99.2
64862;BME280;62652;42.274;-71.436;2023-02-20T00:32:01;101140.0;;;5.7222222222222205;99.4
64862;BME280;62652;42.274;-71.436;2023-02-20T00:33:01;101130.0;;;5.7222222222222205;99.4
64862;BME280;62652;42.274;-71.436;2023-02-20T00:34:01;101140.0;;;5.7222222222222205;100.0
64862;BME280;62652;42.274;-71.436;2023-02-20T00:35:01;101150.0;;;5.611111111111112;100.0
64862;BME280;62652;42.274;-71.436;2023-02-20T00:36:01;101150.0;;;5.611111111111112;100.0
64862;BME280;62652;42.274;-71.436;2023-02-20T00:37:01;101150.0;;;5.611111111111112;100.0
64862;BME280;62652;42.274;-71.436;2023-02-20T00:38:01;101160.0;;;5.499999999999999;100.0
64862;BME280;62652;42.274;-71.436;2023-02-20T00:39:01;101160.0;;;5.499999999999999;100.0
64862;BME280;62652;42.274;-71.436;2023-02-20T00:40:01;101160.0;;;5.611111111111112;100.0
64862;BME280;62652;42.274;-71.436;2023-02-20T00:41:01;101150.0;;;5.611111111111112;100.0
64862;BME280;62652;42.274;-71.436;2023-02-20T00:42:01;101150.0;;;5.499999999999999;100.0
64862;BME280;62652;42.274;-71.436;2023-02-20T00:43:01;101140.0;;;5.499999999999999;100.0
64862;BME280;62652;42.274;-71.436;2023-02-20T00:44:01;101130.0;;;5.611111111111112;100.0
64862;BME280;62652;42.274;-71.436;2023-02-20T00:45:01;101150.0;;;5.611111111111112;100.0
64862;BME280;62652;42.274;-71.436;2023-02-20T00:46:01;101160.0;;;5.611111111111112;100.0
64862;BME280;62652;42.274;-71.436;2023-02-20T00:47:01;101150.0;;;5.611111111111112;100.0
64862;BME280;62652;42.274;-71.436;2023-02-20T00:48:01;101150.0;;;5.611111111111112;100.0
64862;BME280;62652;42.274;-71.436;2023-02-20T00:49:01;101150.0;;;5.499999999999999;100.0
64862;BME280;62652;42.274;-71.436;2023-02-20T00:50:01;101150.0;;;5.499999999999999;100.0
64862;BME280;62652;42.274;-71.436;2023-02-20T00:51:01;101130.0;;;5.499999999999999;100.0
64862;BME280;62652;42.274;-71.436;2023-02-20T00:52:01;101130.0;;;5.38888888888889;100.0
64862;BME280;62652;42.274;-71.436;2023-02-20T00:53:01;101120.0;;;5.38888888888889;100.0
64862;BME280;62652;42.274;-71.436;2023-02-20T00:55:01;101140.0;;;5.38888888888889;100.0
64862;BME280;62652;42.274;-71.436;2023-02-20T00:56:01;101140.0;;;5.38888888888889;100.0
64862;BME280;62652;42.274;-71.436;2023-02-20T00:57:00;101150.0;;;5.38888888888889;100.0
64862;BME280;62652;42.274;-71.436;2023-02-20T00:58:00;101160.0;;;5.38888888888889;100.0
64862;BME280;62652;42.274;-71.436;2023-02-20T00:59:00;101150.0;;;5.38888888888889;100.0
64862;BME280;62652;42.274;-71.436;2023-02-20T01:00:01;101140.0;;;5.38888888888889;100.0
64862;BME280;62652;42.274;-71.436;2023-02-20T01:01:01;101140.0;;;5.499999999999999;100.0
64862;BME280;62652;42.274;-71.436;2023-02-20T01:02:01;101140.0;;;5.499999999999999;100.0
64862;BME280;62652;42.274;-71.436;2023-02-20T01:03:01;101130.0;;;5.38888888888889;100.0
64862;BME280;62652;42.274;-71.436;2023-02-20T01:04:01;101140.0;;;5.38888888888889;100.0
64862;BME280;62652;42.274;-71.436;2023-02-20T01:05:01;101140.0;;;5.499999999999999;100.0
64862;BME280;62652;42.274;-71.436;2023-02-20T01:06:01;101130.0;;;5.499999999999999;100.0
64862;BME280;62652;42.274;-71.436;2023-02-20T01:07:01;101130.0;;;5.38888888888889;100.0
64862;BME280;62652;42.274;-71.436;2023-02-20T01:08:00;101130.0;;;5.38888888888889;100.0
64862;BME280;62652;42.274;-71.436;2023-02-20T01:09:01;101130.0;;;5.38888888888889;100.0
64862;BME280;62652;42.274;-71.436;2023-02-20T01:10:01;101120.0;;;5.38888888888889;100.0
64862;BME280;62652;42.274;-71.436;2023-02-20T01:11:00;101110.0;;;5.38888888888889;100.0
64862;BME280;62652;42.274;-71.436;2023-02-20T01:12:01;101110.0;;;5.38888888888889;100.0
64862;BME280;62652;42.274;-71.436;2023-02-20T01:13:00;101100.0;;;5.38888888888889;100.0
64862;BME280;62652;42.274;-71.436;2023-02-20T01:14:01;101090.0;;;5.38888888888889;100.0
64862;BME280;62652;42.274;-71.436;2023-02-20T01:15:01;101080.0;;;5.277777777777778;100.0
64862;BME280;62652;42.274;-71.436;2023-02-20T01:16:01;101090.0;;;5.277777777777778;100.0
64862;BME280;62652;42.274;-71.436;2023-02-20T01:17:01;101090.0;;;5.38888888888889;100.0
64862;BME280;62652;42.274;-71.436;2023-02-20T01:18:00;101090.0;;;5.38888888888889;100.0
64862;BME280;62652;42.274;-71.436;2023-02-20T01:19:01;101080.0;;;5.38888888888889;100.0
64862;BME280;62652;42.274;-71.436;2023-02-20T01:20:01;101080.0;;;5.38888888888889;100.0
64862;BME280;62652;42.274;-71.436;2023-02-20T01:21:01;101070.0;;;5.38888888888889;100.0
64862;BME280;62652;42.274;-71.436;2023-02-20T01:22:01;101070.0;;;5.277777777777778;100.0
64862;BME280;62652;42.274;-71.436;2023-02-20T01:23:01;101060.0;;;5.277777777777778;100.0
64862;BME280;62652;42.274;-71.436;2023-02-20T01:24:01;101060.0;;;5.38888888888889;100.0
64862;BME280;62652;42.274;-71.436;2023-02-20T01:25:01;101070.0;;;5.38888888888889;100.0
64862;BME280;62652;42.274;-71.436;2023-02-20T01:26:00;101060.0;;;5.38888888888889;100.0
64862;BME280;62652;42.274;-71.436;2023-02-20T01:27:01;101070.0;;;5.38888888888889;100.0
64862;BME280;62652;42.274;-71.436;2023-02-20T01:28:01;101060.0;;;5.38888888888889;100.0
64862;BME280;62652;42.274;-71.436;2023-02-20T01:29:01;101060.0;;;5.38888888888889;100.0
64862;BME280;62652;42.274;-71.436;2023-02-20T01:30:01;101060.0;;;5.38888888888889;100.0
64862;BME280;62652;42.274;-71.436;2023-02-20T01:31:00;101060.0;;;5.38888888888889;100.0
64862;BME280;62652;42.274;-71.436;2023-02-20T01:32:00;101050.0;;;5.38888888888889;100.0
64862;BME280;62652;42.274;-71.436;2023-02-20T01:33:00;101060.0;;;5.38888888888889;100.0
64862;BME280;62652;42.274;-71.436;2023-02-20T01:34:01;101060.0;;;5.277777777777778;100.0
64862;BME280;62652;42.274;-71.436;2023-02-20T01:35:01;101060.0;;;5.277777777777778;100.0
64862;BME280;62652;42.274;-71.436;2023-02-20T01:36:00;101060.0;;;5.38888888888889;100.0
64862;BME280;62652;42.274;-71.436;2023-02-20T01:37:00;101060.0;;;5.38888888888889;100.0
64862;BME280;62652;42.274;-71.436;2023-02-20T01:38:01;101070.0;;;5.277777777777778;100.0
64862;BME280;62652;42.274;-71.436;2023-02-20T01:41:01;101050.0;;;5.38888888888889;100.0
64862;BME280;62652;42.274;-71.436;2023-02-20T01:42:03;101050.0;;;5.38888888888889;100.0
64862;BME280;62652;42.274;-71.436;2023-02-20T01:43:01;101050.0;;;5.277777777777778;100.0
64862;BME280;62652;42.274;-71.436;2023-02-20T01:44:00;101050.0;;;5.277777777777778;100.0
64862;BME280;62652;42.274;-71.436;2023-02-20T01:45:13;101050.0;;;5.38888888888889;100.0
64862;BME280;62652;42.274;-71.436;2023-02-20T01:47:04;101050.0;;;5.277777777777778;100.0
64862;BME280;62652;42.274;-71.436;2023-02-20T01:48:01;101050.0;;;5.277777777777778;100.0
64862;BME280;62652;42.274;-71.436;2023-02-20T01:49:03;101060.0;;;5.277777777777778;100.0
64862;BME280;62652;42.274;-71.436;2023-02-20T01:50:01;101060.0;;;5.277777777777778;100.0
64862;BME280;62652;42.274;-71.436;2023-02-20T01:51:00;101050.0;;;5.277777777777778;100.0
64862;BME280;62652;42.274;-71.436;2023-02-20T01:52:06;101040.0;;;5.277777777777778;100.0
64862;BME280;62652;42.274;-71.436;2023-02-20T01:53:04;101010.0;;;5.277777777777778;100.0
64862;BME280;62652;42.274;-71.436;2023-02-20T01:54:01;101010.0;;;5.277777777777778;100.0
64862;BME280;62652;42.274;-71.436;2023-02-20T01:55:03;101030.0;;;5.277777777777778;100.0
64862;BME280;62652;42.274;-71.436;2023-02-20T01:56:03;101030.0;;;5.277777777777778;100.0
64862;BME280;62652;42.274;-71.436;2023-02-20T01:57:02;101030.0;;;5.277777777777778;100.0
64862;BME280;62652;42.274;-71.436;2023-02-20T01:58:04;101030.0;;;5.277777777777778;100.0
64862;BME280;62652;42.274;-71.436;2023-02-20T01:59:02;101030.0;;;5.277777777777778;100.0
64862;BME280;62652;42.274;-71.436;2023-02-20T02:01:03;101030.0;;;5.222222222222221;100.0
64862;BME280;62652;42.274;-71.436;2023-02-20T02:05:02;101020.0;;;5.277777777777778;100.0
64862;BME280;62652;42.274;-71.436;2023-02-20T02:06:04;101030.0;;;5.277777777777778;100.0
64862;BME280;62652;42.274;-71.436;2023-02-20T02:07:01;101020.0;;;5.277777777777778;100.0
64862;BME280;62652;42.274;-71.436;2023-02-20T02:08:03;101020.0;;;5.277777777777778;100.0
64862;BME280;62652;42.274;-71.436;2023-02-20T02:09:04;101020.0;;;5.277777777777778;100.0
64862;BME280;62652;42.274;-71.436;2023-02-20T02:10:03;101010.0;;;5.38888888888889;100.0
64862;BME280;62652;42.274;-71.436;2023-02-20T02:11:04;101020.0;;;5.499999999999999;100.0
64862;BME280;62652;42.274;-71.436;2023-02-20T02:12:01;101020.0;;;5.499999999999999;100.0
64862;BME280;62652;42.274;-71.436;2023-02-20T02:13:01;101010.0;;;5.499999999999999;100.0
64862;BME280;62652;42.274;-71.436;2023-02-20T02:14:01;101010.0;;;5.499999999999999;100.0
64862;BME280;62652;42.274;-71.436;2023-02-20T02:15:01;101000.0;;;5.611111111111112;100.0
64862;BME280;62652;42.274;-71.436;2023-02-20T02:16:10;101000.0;;;5.611111111111112;100.0
64862;BME280;62652;42.274;-71.436;2023-02-20T02:17:21;101000.0;;;5.499999999999999;100.0
64862;BME280;62652;42.274;-71.436;2023-02-20T02:18:15;101010.0;;;5.611111111111112;100.0
64862;BME280;62652;42.274;-71.436;2023-02-20T02:19:07;101010.0;;;5.611111111111112;100.0
64862;BME280;62652;42.274;-71.436;2023-02-20T02:20:19;101000.0;;;5.499999999999999;100.0
64862;BME280;62652;42.274;-71.436;2023-02-20T02:21:19;101000.0;;;5.499999999999999;100.0
64862;BME280;62652;42.274;-71.436;2023-02-20T02:22:19;101010.0;;;5.611111111111112;100.0
64862;BME280;62652;42.274;-71.436;2023-02-20T02:23:19;101000.0;;;5.611111111111112;100.0
64862;BME280;62652;42.274;-71.436;2023-02-20T02:25:15;100990.0;;;5.7222222222222205;100.0
64862;BME280;62652;42.274;-71.436;2023-02-20T02:26:10;100990.0;;;5.7222222222222205;100.0
64862;BME280;62652;42.274;-71.436;2023-02-20T02:28:16;100990.0;;;5.611111111111112;100.0
64862;BME280;62652;42.274;-71.436;2023-02-20T02:29:16;100990.0;;;5.611111111111112;100.0
64862;BME280;62652;42.274;-71.436;2023-02-20T02:30:18;100990.0;;;5.611111111111112;100.0
64862;BME280;62652;42.274;-71.436;2023-02-20T02:31:17;100990.0;;;5.7222222222222205;100.0
64862;BME280;62652;42.274;-71.436;2023-02-20T02:32:15;100980.0;;;5.611111111111112;100.0
64862;BME280;62652;42.274;-71.436;2023-02-20T02:33:06;100980.0;;;5.611111111111112;100.0
64862;BME280;62652;42.274;-71.436;2023-02-20T02:34:18;100990.0;;;5.7222222222222205;100.0
64862;BME280;62652;42.274;-71.436;2023-02-20T02:36:14;100980.0;;;5.7222222222222205;100.0
64862;BME280;62652;42.274;-71.436;2023-02-20T02:37:06;100980.0;;;5.7222222222222205;100.0
64862;BME280;62652;42.274;-71.436;2023-02-20T02:38:10;100980.0;;;5.777777777777777;100.0
64862;BME280;62652;42.274;-71.436;2023-02-20T02:39:06;100970.0;;;5.777777777777777;100.0
64862;BME280;62652;42.274;-71.436;2023-02-20T02:40:04;100960.0;;;5.777777777777777;100.0
64862;BME280;62652;42.274;-71.436;2023-02-20T02:41:06;100960.0;;;5.888888888888889;100.0
64862;BME280;62652;42.274;-71.436;2023-02-20T02:42:08;100960.0;;;5.777777777777777;100.0
64862;BME280;62652;42.274;-71.436;2023-02-20T02:43:08;100960.0;;;5.888888888888889;100.0
64862;BME280;62652;42.274;-71.436;2023-02-20T02:44:09;100950.0;;;5.888888888888889;100.0
64862;BME280;62652;42.274;-71.436;2023-02-20T02:45:05;100960.0;;;5.888888888888889;100.0
64862;BME280;62652;42.274;-71.436;2023-02-20T02:46:06;100950.0;;;5.999999999999998;100.0
64862;BME280;62652;42.274;-71.436;2023-02-20T02:47:04;100950.0;;;5.999999999999998;100.0
64862;BME280;62652;42.274;-71.436;2023-02-20T02:48:07;100950.0;;;5.999999999999998;100.0
64862;BME280;62652;42.274;-71.436;2023-02-20T02:49:05;100950.0;;;5.888888888888889;100.0
64862;BME280;62652;42.274;-71.436;2023-02-20T02:50:06;100950.0;;;5.888888888888889;100.0
64862;BME280;62652;42.274;-71.436;2023-02-20T02:51:06;100940.0;;;5.888888888888889;100.0
64862;BME280;62652;42.274;-71.436;2023-02-20T02:52:02;100950.0;;;5.888888888888889;100.0
64862;BME280;62652;42.274;-71.436;2023-02-20T02:53:01;100950.0;;;5.999999999999998;100.0
64862;BME280;62652;42.274;-71.436;2023-02-20T02:54:07;100950.0;;;5.999999999999998;100.0
64862;BME280;62652;42.274;-71.436;2023-02-20T02:55:01;100940.0;;;5.888888888888889;100.0
64862;BME280;62652;42.274;-71.436;2023-02-20T02:56:01;100940.0;;;5.888888888888889;100.0
64862;BME280;62652;42.274;-71.436;2023-02-20T02:57:19;100940.0;;;5.999999999999998;100.0
64862;BME280;62652;42.274;-71.436;2023-02-20T02:58:02;100950.0;;;5.999999999999998;100.0
64862;BME280;62652;42.274;-71.436;2023-02-20T02:59:02;100950.0;;;5.999999999999998;100.0
64862;BME280;62652;42.274;-71.436;2023-02-20T03:00:05;100950.0;;;5.999999999999998;100.0
64862;BME280;62652;42.274;-71.436;2023-02-20T03:01:01;100950.0;;;6.111111111111111;100.0
64862;BME280;62652;42.274;-71.436;2023-02-20T03:02:04;100940.0;;;5.999999999999998;100.0
64862;BME280;62652;42.274;-71.436;2023-02-20T03:03:07;100950.0;;;5.999999999999998;100.0
64862;BME280;62652;42.274;-71.436;2023-02-20T03:04:03;100940.0;;;5.888888888888889;100.0
64862;BME280;62652;42.274;-71.436;2023-02-20T03:05:03;100940.0;;;5.999999999999998;100.0
64862;BME280;62652;42.274;-71.436;2023-02-20T03:06:04;100940.0;;;5.888888888888889;100.0
64862;BME280;62652;42.274;-71.436;2023-02-20T03:07:03;100930.0;;;5.999999999999998;100.0
64862;BME280;62652;42.274;-71.436;2023-02-20T03:08:01;100930.0;;;5.999999999999998;100.0
64862;BME280;62652;42.274;-71.436;2023-02-20T03:09:04;100940.0;;;5.999999999999998;100.0
64862;BME280;62652;42.274;-71.436;2023-02-20T03:10:04;100930.0;;;5.999999999999998;100.0
64862;BME280;62652;42.274;-71.436;2023-02-20T03:11:04;100930.0;;;5.888888888888889;100.0
64862;BME280;62652;42.274;-71.436;2023-02-20T03:12:02;100930.0;;;5.888888888888889;100.0
64862;BME280;62652;42.274;-71.436;2023-02-20T03:13:03;100930.0;;;5.888888888888889;100.0
64862;BME280;62652;42.274;-71.436;2023-02-20T03:14:04;100930.0;;;5.888888888888889;100.0
64862;BME280;62652;42.274;-71.436;2023-02-20T03:15:06;100930.0;;;5.999999999999998;100.0
64862;BME280;62652;42.274;-71.436;2023-02-20T03:16:01;100930.0;;;5.888888888888889;100.0
64862;BME280;62652;42.274;-71.436;2023-02-20T03:17:07;100920.0;;;5.999999999999998;100.0
64862;BME280;62652;42.274;-71.436;2023-02-20T03:18:08;100920.0;;;5.999999999999998;100.0
64862;BME280;62652;42.274;-71.436;2023-02-20T03:19:02;100920.0;;;6.111111111111111;100.0
64862;BME280;62652;42.274;-71.436;2023-02-20T03:20:05;100910.0;;;6.111111111111111;100.0
64862;BME280;62652;42.274;-71.436;2023-02-20T03:21:04;100920.0;;;6.222222222222224;100.0
64862;BME280;62652;42.274;-71.436;2023-02-20T03:22:04;100910.0;;;6.111111111111111;100.0
64862;BME280;62652;42.274;-71.436;2023-02-20T03:23:04;100910.0;;;6.222222222222224;100.0
64862;BME280;62652;42.274;-71.436;2023-02-20T03:24:02;100900.0;;;6.111111111111111;100.0
64862;BME280;62652;42.274;-71.436;2023-02-20T03:25:05;100900.0;;;6.222222222222224;100.0
64862;BME280;62652;42.274;-71.436;2023-02-20T03:26:04;100900.0;;;6.222222222222224;100.0
64862;BME280;62652;42.274;-71.436;2023-02-20T03:27:02;100890.0;;;6.277777777777776;100.0
64862;BME280;62652;42.274;-71.436;2023-02-20T03:28:04;100890.0;;;6.222222222222224;100.0
64862;BME280;62652;42.274;-71.436;2023-02-20T03:29:05;100890.0;;;6.222222222222224;100.0
64862;BME280;62652;42.274;-71.436;2023-02-20T03:30:01;100880.0;;;6.222222222222224;100.0
64862;BME280;62652;42.274;-71.436;2023-02-20T03:31:05;100890.0;;;6.222222222222224;100.0
64862;BME280;62652;42.274;-71.436;2023-02-20T03:32:06;100880.0;;;6.222222222222224;100.0
64862;BME280;62652;42.274;-71.436;2023-02-20T03:33:07;100880.0;;;6.222222222222224;100.0
64862;BME280;62652;42.274;-71.436;2023-02-20T03:34:08;100880.0;;;6.222222222222224;100.0
64862;BME280;62652;42.274;-71.436;2023-02-20T03:35:01;100880.0;;;6.222222222222224;100.0
64862;BME280;62652;42.274;-71.436;2023-02-20T03:36:03;100880.0;;;6.222222222222224;100.0
64862;BME280;62652;42.274;-71.436;2023-02-20T03:37:06;100880.0;;;6.222222222222224;100.0
64862;BME280;62652;42.274;-71.436;2023-02-20T03:38:03;100880.0;;;6.222222222222224;100.0
64862;BME280;62652;42.274;-71.436;2023-02-20T03:39:05;100880.0;;;6.222222222222224;100.0
64862;BME280;62652;42.274;-71.436;2023-02-20T03:40:06;100870.0;;;6.277777777777776;100.0
64862;BME280;62652;42.274;-71.436;2023-02-20T03:41:02;100870.0;;;6.277777777777776;100.0
64862;BME280;62652;42.274;-71.436;2023-02-20T03:42:03;100870.0;;;6.277777777777776;100.0
64862;BME280;62652;42.274;-71.436;2023-02-20T03:43:06;100870.0;;;6.388888888888889;100.0
64862;BME280;62652;42.274;-71.436;2023-02-20T03:44:03;100860.0;;;6.388888888888889;100.0
64862;BME280;62652;42.274;-71.436;2023-02-20T03:45:02;100860.0;;;6.388888888888889;100.0
64862;BME280;62652;42.274;-71.436;2023-02-20T03:46:04;100860.0;;;6.388888888888889;100.0
64862;BME280;62652;42.274;-71.436;2023-02-20T03:47:02;100860.0;;;6.388888888888889;100.0
64862;BME280;62652;42.274;-71.436;2023-02-20T03:48:03;100860.0;;;6.500000000000002;100.0
64862;BME280;62652;42.274;-71.436;2023-02-20T03:49:05;100850.0;;;6.500000000000002;100.0
64862;BME280;62652;42.274;-71.436;2023-02-20T03:50:02;100860.0;;;6.500000000000002;100.0
64862;BME280;62652;42.274;-71.436;2023-02-20T03:51:01;100840.0;;;6.611111111111111;100.0
64862;BME280;62652;42.274;-71.436;2023-02-20T03:52:01;100840.0;;;6.611111111111111;100.0
64862;BME280;62652;42.274;-71.436;2023-02-20T03:53:01;100840.0;;;6.611111111111111;100.0
64862;BME280;62652;42.274;-71.436;2023-02-20T03:54:01;100830.0;;;6.722222222222223;100.0
64862;BME280;62652;42.274;-71.436;2023-02-20T03:55:01;100840.0;;;6.7777777777777795;100.0
64862;BME280;62652;42.274;-71.436;2023-02-20T03:56:04;100840.0;;;6.722222222222223;100.0
64862;BME280;62652;42.274;-71.436;2023-02-20T03:57:04;100830.0;;;6.722222222222223;100.0
64862;BME280;62652;42.274;-71.436;2023-02-20T03:58:04;100830.0;;;6.722222222222223;100.0
64862;BME280;62652;42.274;-71.436;2023-02-20T03:59:07;100830.0;;;6.722222222222223;100.0
64862;BME280;62652;42.274;-71.436;2023-02-20T04:00:02;100820.0;;;6.722222222222223;100.0
64862;BME280;62652;42.274;-71.436;2023-02-20T04:01:03;100830.0;;;6.722222222222223;100.0
64862;BME280;62652;42.274;-71.436;2023-02-20T04:02:04;100820.0;;;6.722222222222223;100.0
64862;BME280;62652;42.274;-71.436;2023-02-20T04:03:07;100820.0;;;6.7777777777777795;100.0
64862;BME280;62652;42.274;-71.436;2023-02-20T04:04:02;100820.0;;;6.7777777777777795;100.0
64862;BME280;62652;42.274;-71.436;2023-02-20T04:05:04;100820.0;;;6.7777777777777795;100.0
64862;BME280;62652;42.274;-71.436;2023-02-20T04:06:03;100820.0;;;6.7777777777777795;100.0
64862;BME280;62652;42.274;-71.436;2023-02-20T04:07:07;100830.0;;;6.888888888888888;100.0
64862;BME280;62652;42.274;-71.436;2023-02-20T04:08:04;100820.0;;;6.888888888888888;100.0
64862;BME280;62652;42.274;-71.436;2023-02-20T04:09:05;100820.0;;;6.888888888888888;100.0
64862;BME280;62652;42.274;-71.436;2023-02-20T04:10:05;100820.0;;;6.888888888888888;100.0
64862;BME280;62652;42.274;-71.436;2023-02-20T04:11:05;100820.0;;;7.000000000000001;100.0
64862;BME280;62652;42.274;-71.436;2023-02-20T04:12:06;100820.0;;;7.000000000000001;100.0
64862;BME280;62652;42.274;-71.436;2023-02-20T04:13:02;100820.0;;;7.000000000000001;100.0
64862;BME280;62652;42.274;-71.436;2023-02-20T04:14:01;100810.0;;;7.000000000000001;100.0
64862;BME280;62652;42.274;-71.436;2023-02-20T04:15:02;100820.0;;;7.000000000000001;100.0
64862;BME280;62652;42.274;-71.436;2023-02-20T04:16:01;100810.0;;;7.11111111111111;100.0
64862;BME280;62652;42.274;-71.436;2023-02-20T04:17:04;100800.0;;;7.11111111111111;100.0
64862;BME280;62652;42.274;-71.436;2023-02-20T04:18:05;100800.0;;;7.11111111111111;100.0
64862;BME280;62652;42.274;-71.436;2023-02-20T04:19:01;100800.0;;;7.11111111111111;100.0
64862;BME280;62652;42.274;-71.436;2023-02-20T04:20:02;100800.0;;;7.11111111111111;100.0
64862;BME280;62652;42.274;-71.436;2023-02-20T04:21:03;100800.0;;;7.11111111111111;100.0
64862;BME280;62652;42.274;-71.436;2023-02-20T04:22:03;100800.0;;;7.11111111111111;100.0
64862;BME280;62652;42.274;-71.436;2023-02-20T04:23:08;100800.0;;;7.11111111111111;100.0
64862;BME280;62652;42.274;-71.436;2023-02-20T04:24:04;100800.0;;;7.11111111111111;100.0
64862;BME280;62652;42.274;-71.436;2023-02-20T04:25:06;100790.0;;;7.11111111111111;100.0
64862;BME280;62652;42.274;-71.436;2023-02-20T04:26:04;100790.0;;;7.11111111111111;100.0
64862;BME280;62652;42.274;-71.436;2023-02-20T04:27:01;100790.0;;;7.11111111111111;100.0
64862;BME280;62652;42.274;-71.436;2023-02-20T04:28:02;100790.0;;;7.222222222222222;100.0
64862;BME280;62652;42.274;-71.436;2023-02-20T04:29:01;100790.0;;;7.11111111111111;100.0
64862;BME280;62652;42.274;-71.436;2023-02-20T04:30:01;100790.0;;;7.222222222222222;100.0
64862;BME280;62652;42.274;-71.436;2023-02-20T04:31:01;100790.0;;;7.222222222222222;100.0
64862;BME280;62652;42.274;-71.436;2023-02-20T04:32:01;100800.0;;;7.277777777777778;100.0
64862;BME280;62652;42.274;-71.436;2023-02-20T04:33:01;100780.0;;;7.277777777777778;100.0
64862;BME280;62652;42.274;-71.436;2023-02-20T04:34:01;100790.0;;;7.277777777777778;100.0
64862;BME280;62652;42.274;-71.436;2023-02-20T04:35:01;100790.0;;;7.3888888888888875;100.0
64862;BME280;62652;42.274;-71.436;2023-02-20T04:36:01;100790.0;;;7.3888888888888875;100.0
64862;BME280;62652;42.274;-71.436;2023-02-20T04:37:06;100790.0;;;7.3888888888888875;100.0
64862;BME280;62652;42.274;-71.436;2023-02-20T04:38:01;100790.0;;;7.3888888888888875;100.0
64862;BME280;62652;42.274;-71.436;2023-02-20T04:39:01;100780.0;;;7.3888888888888875;100.0